Terminal Aerodrome Forecast
Issued by NWS

Home | Current Version | Previous Version | Text Only | Print | Product List | Glossary Off
Versions: 1 2 3 4 5 6 7 8 9 10 11 12 13 14 15 16

000
FTUS43 KGRB 292332
TAFCWA
TAF
KCWA 292332Z 3000/3024 04006KT P6SM SKC
     FM301100 03006KT P6SM SCT050
     FM301400 05009G16KT P6SM BKN040
     FM301800 06009G16KT P6SM OVC025 PROB30 3022/3024 -SHRA
      AMD LTD TO CLD VIS AND WIND 3003/3011=

USA.gov is the U.S. government's official web portal to all federal, state and local government web resources and services.